NOZ31F ENGM-EGKK
Flight info
| Callsign | NOZ31F |
|---|---|
| Flight time | N/A |
| Altitude | 36000 |
| Route | VIPPA DCT ELKOP DCT AMSEV DCT UPGAS DCT TIPAN DCT WECOW DCT BINBO DCT AKOKO N866 BUKUT P7 BARMI |
| Aircraft | B738/M-SDE2E3FGHIRWXY/LB1 |
Departure
| Time | N/A |
|---|---|
| Airport | Oslo-Gardermoen International Airport (ENGM) |
Arrival
| Time | 2026-05-04 18:16 |
|---|---|
| Airport | London Gatwick Airport (EGKK) |
| Time | Latitude | Longitude | Altitude | Speed | Heading |
|---|---|---|---|---|---|
| 2026-05-04 17:23 | 53.84707 | 3.72693 | 36037 ft | 425 kts | 208° |
| 2026-05-04 17:23 | 53.81698 | 3.70057 | 36039 ft | 424 kts | 208° |
| 2026-05-04 17:24 | 53.73847 | 3.63197 | 36041 ft | 424 kts | 208° |
| 2026-05-04 17:25 | 53.63341 | 3.54059 | 36042 ft | 426 kts | 208° |
| 2026-05-04 17:26 | 53.52781 | 3.44921 | 36045 ft | 427 kts | 208° |
| 2026-05-04 17:27 | 53.39520 | 3.33521 | 36049 ft | 429 kts | 208° |
| 2026-05-04 17:28 | 53.28877 | 3.24493 | 36046 ft | 428 kts | 208° |
| 2026-05-04 17:29 | 53.15041 | 3.12780 | 36032 ft | 426 kts | 208° |
| 2026-05-04 17:31 | 53.01836 | 3.01695 | 35475 ft | 428 kts | 208° |
| 2026-05-04 17:31 | 52.93985 | 2.95141 | 34126 ft | 413 kts | 208° |
| 2026-05-04 17:32 | 52.88919 | 2.90916 | 33251 ft | 402 kts | 208° |
| 2026-05-04 17:33 | 52.81584 | 2.84803 | 31997 ft | 386 kts | 207° |
| 2026-05-04 17:33 | 52.79198 | 2.82820 | 31586 ft | 382 kts | 208° |
| 2026-05-04 17:34 | 52.72193 | 2.77021 | 30414 ft | 369 kts | 207° |
| 2026-05-04 17:34 | 52.69903 | 2.75135 | 30024 ft | 366 kts | 207° |
| 2026-05-04 17:35 | 52.63209 | 2.69625 | 28786 ft | 351 kts | 208° |
| 2026-05-04 17:35 | 52.58884 | 2.66077 | 27991 ft | 344 kts | 208° |
| 2026-05-04 17:35 | 52.56752 | 2.64328 | 27617 ft | 341 kts | 208° |
| 2026-05-04 17:36 | 52.54631 | 2.62590 | 27220 ft | 341 kts | 208° |
| 2026-05-04 17:36 | 52.52479 | 2.60825 | 26839 ft | 352 kts | 208° |
| 2026-05-04 17:36 | 52.50259 | 2.59008 | 26442 ft | 360 kts | 208° |
| 2026-05-04 17:36 | 52.48025 | 2.57185 | 26020 ft | 356 kts | 208° |
| 2026-05-04 17:37 | 52.45842 | 2.55409 | 25920 ft | 345 kts | 208° |
| 2026-05-04 17:37 | 52.43697 | 2.53668 | 25820 ft | 347 kts | 208° |
| 2026-05-04 17:37 | 52.41501 | 2.51885 | 25722 ft | 357 kts | 208° |
| 2026-05-04 17:37 | 52.39260 | 2.50065 | 25613 ft | 360 kts | 208° |
| 2026-05-04 17:38 | 52.37029 | 2.48260 | 25491 ft | 357 kts | 208° |
| 2026-05-04 17:38 | 52.35553 | 2.47066 | 25424 ft | 356 kts | 208° |
| 2026-05-04 17:38 | 52.33338 | 2.45275 | 25305 ft | 355 kts | 208° |
| 2026-05-04 17:38 | 52.31129 | 2.43490 | 25207 ft | 354 kts | 208° |
| 2026-05-04 17:39 | 52.26716 | 2.39932 | 24989 ft | 354 kts | 208° |
| 2026-05-04 17:39 | 52.23790 | 2.37573 | 24840 ft | 354 kts | 207° |
| 2026-05-04 17:39 | 52.21581 | 2.35795 | 24738 ft | 354 kts | 207° |
| 2026-05-04 17:40 | 52.20086 | 2.34593 | 24666 ft | 354 kts | 207° |
| 2026-05-04 17:40 | 52.17869 | 2.32813 | 24561 ft | 354 kts | 207° |
| 2026-05-04 17:40 | 52.15658 | 2.31039 | 24454 ft | 355 kts | 207° |
| 2026-05-04 17:40 | 52.13438 | 2.29263 | 24347 ft | 355 kts | 207° |
| 2026-05-04 17:41 | 52.11220 | 2.27489 | 24240 ft | 355 kts | 207° |
| 2026-05-04 17:41 | 52.09001 | 2.25715 | 24132 ft | 355 kts | 207° |
| 2026-05-04 17:41 | 52.06785 | 2.23947 | 24027 ft | 355 kts | 207° |
| 2026-05-04 17:41 | 52.04569 | 2.22180 | 23909 ft | 355 kts | 207° |
| 2026-05-04 17:42 | 52.02356 | 2.20417 | 23804 ft | 354 kts | 207° |
| 2026-05-04 17:42 | 52.00152 | 2.18657 | 23699 ft | 352 kts | 207° |
| 2026-05-04 17:42 | 51.97954 | 2.16909 | 23592 ft | 352 kts | 207° |
| 2026-05-04 17:42 | 51.95755 | 2.15165 | 23475 ft | 351 kts | 207° |
| 2026-05-04 17:43 | 51.93561 | 2.13425 | 23361 ft | 350 kts | 207° |
| 2026-05-04 17:43 | 51.91374 | 2.11691 | 23245 ft | 350 kts | 207° |
| 2026-05-04 17:43 | 51.89192 | 2.09964 | 23139 ft | 349 kts | 207° |
| 2026-05-04 17:43 | 51.87013 | 2.08245 | 23032 ft | 348 kts | 207° |
| 2026-05-04 17:44 | 51.84834 | 2.06523 | 22930 ft | 348 kts | 207° |
| 2026-05-04 17:44 | 51.82663 | 2.04808 | 22820 ft | 347 kts | 207° |
| 2026-05-04 17:44 | 51.80491 | 2.03096 | 22725 ft | 347 kts | 207° |
| 2026-05-04 17:44 | 51.78321 | 2.01384 | 22602 ft | 347 kts | 207° |
| 2026-05-04 17:45 | 51.76152 | 1.99674 | 22493 ft | 347 kts | 207° |
| 2026-05-04 17:45 | 51.73982 | 1.97967 | 22395 ft | 347 kts | 207° |
| 2026-05-04 17:45 | 51.71813 | 1.96265 | 22292 ft | 347 kts | 207° |
| 2026-05-04 17:45 | 51.69646 | 1.94565 | 22183 ft | 347 kts | 207° |
| 2026-05-04 17:46 | 51.67475 | 1.92862 | 22090 ft | 347 kts | 206° |
| 2026-05-04 17:46 | 51.65365 | 1.90999 | 21922 ft | 347 kts | 216° |
| 2026-05-04 17:46 | 51.63637 | 1.88250 | 21457 ft | 349 kts | 228° |
| 2026-05-04 17:46 | 51.62056 | 1.85292 | 20968 ft | 349 kts | 229° |
| 2026-05-04 17:47 | 51.60477 | 1.82334 | 20493 ft | 347 kts | 229° |
| 2026-05-04 17:47 | 51.58902 | 1.79407 | 20030 ft | 344 kts | 228° |
| 2026-05-04 17:47 | 51.57332 | 1.76518 | 19568 ft | 342 kts | 228° |
| 2026-05-04 17:47 | 51.55766 | 1.73657 | 19110 ft | 340 kts | 228° |
| 2026-05-04 17:48 | 51.54203 | 1.70813 | 18666 ft | 339 kts | 228° |
| 2026-05-04 17:48 | 51.52646 | 1.67986 | 18210 ft | 338 kts | 227° |
| 2026-05-04 17:48 | 51.51110 | 1.65204 | 17701 ft | 337 kts | 227° |
| 2026-05-04 17:48 | 51.49545 | 1.62362 | 17214 ft | 335 kts | 229° |
| 2026-05-04 17:49 | 51.48338 | 1.59193 | 16752 ft | 334 kts | 248° |
| 2026-05-04 17:49 | 51.47559 | 1.55699 | 16328 ft | 331 kts | 250° |
| 2026-05-04 17:49 | 51.46801 | 1.52218 | 15882 ft | 330 kts | 250° |
| 2026-05-04 17:49 | 51.46031 | 1.48759 | 15438 ft | 329 kts | 250° |
| 2026-05-04 17:50 | 51.45247 | 1.45320 | 15000 ft | 328 kts | 250° |
| 2026-05-04 17:50 | 51.44456 | 1.41885 | 14568 ft | 328 kts | 250° |
| 2026-05-04 17:50 | 51.43592 | 1.38514 | 14115 ft | 327 kts | 240° |
| 2026-05-04 17:50 | 51.42146 | 1.35826 | 13923 ft | 319 kts | 221° |
| 2026-05-04 17:51 | 51.40415 | 1.33642 | 13737 ft | 315 kts | 217° |
| 2026-05-04 17:51 | 51.38649 | 1.31588 | 13544 ft | 313 kts | 216° |
| 2026-05-04 17:51 | 51.36869 | 1.29549 | 13376 ft | 317 kts | 216° |
| 2026-05-04 17:51 | 51.35070 | 1.27478 | 13200 ft | 320 kts | 216° |
| 2026-05-04 17:52 | 51.33268 | 1.25387 | 13034 ft | 319 kts | 216° |
| 2026-05-04 17:52 | 51.31486 | 1.23306 | 12855 ft | 316 kts | 216° |
| 2026-05-04 17:52 | 51.29718 | 1.21234 | 12689 ft | 314 kts | 216° |
| 2026-05-04 17:52 | 51.27961 | 1.19172 | 12526 ft | 313 kts | 216° |
| 2026-05-04 17:53 | 51.26212 | 1.17117 | 12364 ft | 312 kts | 216° |
| 2026-05-04 17:53 | 51.24468 | 1.15069 | 12202 ft | 311 kts | 216° |
| 2026-05-04 17:53 | 51.22728 | 1.13022 | 12042 ft | 311 kts | 216° |
| 2026-05-04 17:53 | 51.20988 | 1.10983 | 11877 ft | 310 kts | 216° |
| 2026-05-04 17:54 | 51.19246 | 1.08941 | 11718 ft | 310 kts | 216° |
| 2026-05-04 17:54 | 51.17510 | 1.06906 | 11556 ft | 310 kts | 216° |
| 2026-05-04 17:54 | 51.15773 | 1.04876 | 11389 ft | 309 kts | 216° |
| 2026-05-04 17:54 | 51.14038 | 1.02847 | 11231 ft | 309 kts | 216° |
| 2026-05-04 17:55 | 51.12310 | 1.00824 | 11065 ft | 308 kts | 216° |
| 2026-05-04 17:55 | 51.10583 | 0.98804 | 10906 ft | 307 kts | 216° |
| 2026-05-04 17:55 | 51.08861 | 0.96796 | 10743 ft | 307 kts | 216° |
| 2026-05-04 17:55 | 51.07141 | 0.94793 | 10585 ft | 306 kts | 216° |
| 2026-05-04 17:56 | 51.05567 | 0.92544 | 10395 ft | 305 kts | 232° |
| 2026-05-04 17:56 | 51.04574 | 0.89629 | 10199 ft | 297 kts | 251° |
| 2026-05-04 17:56 | 51.04031 | 0.86514 | 10038 ft | 288 kts | 255° |
| 2026-05-04 17:56 | 51.03562 | 0.83448 | 9871 ft | 284 kts | 256° |
| 2026-05-04 17:57 | 51.03106 | 0.80393 | 9708 ft | 283 kts | 256° |
| 2026-05-04 17:57 | 51.02648 | 0.77352 | 9547 ft | 283 kts | 256° |
| 2026-05-04 17:57 | 51.02186 | 0.74321 | 9380 ft | 282 kts | 256° |
| 2026-05-04 17:57 | 51.01721 | 0.71305 | 9233 ft | 281 kts | 256° |
| 2026-05-04 17:58 | 51.01255 | 0.68299 | 9086 ft | 280 kts | 256° |
| 2026-05-04 17:58 | 51.00787 | 0.65309 | 8926 ft | 279 kts | 256° |
| 2026-05-04 17:58 | 51.00317 | 0.62319 | 8786 ft | 279 kts | 256° |
| 2026-05-04 17:58 | 50.99846 | 0.59336 | 8636 ft | 278 kts | 256° |
| 2026-05-04 17:59 | 50.99375 | 0.56356 | 8490 ft | 278 kts | 256° |
| 2026-05-04 17:59 | 50.98904 | 0.53380 | 8341 ft | 278 kts | 256° |
| 2026-05-04 17:59 | 50.97960 | 0.47434 | 8064 ft | 279 kts | 256° |
| 2026-05-04 18:00 | 50.97481 | 0.44427 | 8012 ft | 282 kts | 256° |
| 2026-05-04 18:00 | 50.97009 | 0.41436 | 8006 ft | 279 kts | 255° |
| 2026-05-04 18:00 | 50.96530 | 0.38462 | 7995 ft | 279 kts | 255° |
| 2026-05-04 18:00 | 50.96051 | 0.35481 | 8002 ft | 279 kts | 255° |
| 2026-05-04 18:01 | 50.95573 | 0.32504 | 8001 ft | 279 kts | 255° |
| 2026-05-04 18:01 | 50.95096 | 0.29533 | 7986 ft | 276 kts | 256° |
| 2026-05-04 18:01 | 50.94775 | 0.26520 | 7978 ft | 279 kts | 270° |
| 2026-05-04 18:02 | 50.96589 | 0.21274 | 8010 ft | 280 kts | 311° |
| 2026-05-04 18:02 | 50.97876 | 0.18955 | 8014 ft | 280 kts | 311° |
| 2026-05-04 18:02 | 50.99165 | 0.16629 | 7992 ft | 282 kts | 311° |
| 2026-05-04 18:02 | 51.00463 | 0.14295 | 7999 ft | 281 kts | 311° |
| 2026-05-04 18:03 | 51.01740 | 0.11998 | 7989 ft | 272 kts | 311° |
| 2026-05-04 18:03 | 51.02960 | 0.09806 | 7982 ft | 258 kts | 311° |
| 2026-05-04 18:03 | 51.04106 | 0.07744 | 7983 ft | 247 kts | 310° |
| 2026-05-04 18:03 | 51.05233 | 0.05704 | 7990 ft | 245 kts | 310° |
| 2026-05-04 18:04 | 51.06361 | 0.03667 | 8005 ft | 248 kts | 310° |
| 2026-05-04 18:04 | 51.07459 | 0.01547 | 8000 ft | 250 kts | 301° |
| 2026-05-04 18:04 | 51.07677 | -0.03744 | 7990 ft | 247 kts | 253° |
| 2026-05-04 18:05 | 51.07165 | -0.06336 | 7944 ft | 245 kts | 251° |
| 2026-05-04 18:05 | 51.06628 | -0.08929 | 7765 ft | 249 kts | 251° |
| 2026-05-04 18:05 | 51.06079 | -0.11544 | 7565 ft | 249 kts | 251° |
| 2026-05-04 18:05 | 51.05527 | -0.14148 | 7339 ft | 248 kts | 251° |
| 2026-05-04 18:06 | 51.04424 | -0.19280 | 6867 ft | 243 kts | 251° |
| 2026-05-04 18:06 | 51.03874 | -0.21813 | 6635 ft | 242 kts | 251° |
| 2026-05-04 18:06 | 51.03323 | -0.24333 | 6392 ft | 241 kts | 251° |
| 2026-05-04 18:07 | 51.02771 | -0.26834 | 6148 ft | 240 kts | 251° |
| 2026-05-04 18:07 | 51.02219 | -0.29323 | 5886 ft | 239 kts | 251° |
| 2026-05-04 18:07 | 51.01665 | -0.31805 | 5637 ft | 238 kts | 251° |
| 2026-05-04 18:07 | 51.01113 | -0.34271 | 5433 ft | 236 kts | 251° |
| 2026-05-04 18:08 | 51.00564 | -0.36720 | 5202 ft | 236 kts | 251° |
| 2026-05-04 18:08 | 51.00006 | -0.39186 | 4953 ft | 239 kts | 251° |
| 2026-05-04 18:08 | 50.99441 | -0.41682 | 4693 ft | 242 kts | 251° |
| 2026-05-04 18:08 | 50.98970 | -0.44234 | 4417 ft | 240 kts | 266° |
| 2026-05-04 18:09 | 51.00337 | -0.48658 | 4052 ft | 230 kts | 327° |
| 2026-05-04 18:09 | 51.03037 | -0.51299 | 4021 ft | 222 kts | 330° |
| 2026-05-04 18:10 | 51.04317 | -0.52516 | 4007 ft | 205 kts | 330° |
| 2026-05-04 18:10 | 51.05494 | -0.53629 | 3992 ft | 191 kts | 331° |
| 2026-05-04 18:10 | 51.06628 | -0.54691 | 3992 ft | 187 kts | 334° |
| 2026-05-04 18:10 | 51.07869 | -0.55015 | 4009 ft | 183 kts | 13° |
| 2026-05-04 18:11 | 51.08946 | -0.53991 | 3997 ft | 186 kts | 47° |
| 2026-05-04 18:11 | 51.09787 | -0.52408 | 3871 ft | 189 kts | 50° |
| 2026-05-04 18:11 | 51.10449 | -0.50626 | 3691 ft | 187 kts | 70° |
| 2026-05-04 18:11 | 51.10785 | -0.48653 | 3524 ft | 183 kts | 75° |
| 2026-05-04 18:12 | 51.11055 | -0.46699 | 3461 ft | 179 kts | 76° |
| 2026-05-04 18:12 | 51.11320 | -0.44726 | 3252 ft | 185 kts | 76° |
| 2026-05-04 18:12 | 51.11589 | -0.42719 | 3000 ft | 186 kts | 76° |
| 2026-05-04 18:12 | 51.11857 | -0.40732 | 2758 ft | 182 kts | 76° |
| 2026-05-04 18:13 | 51.12120 | -0.38782 | 2513 ft | 179 kts | 76° |
| 2026-05-04 18:13 | 51.12384 | -0.36872 | 2277 ft | 176 kts | 76° |
| 2026-05-04 18:13 | 51.12877 | -0.33188 | 1811 ft | 157 kts | 76° |
| 2026-05-04 18:14 | 51.13113 | -0.31514 | 1602 ft | 155 kts | 76° |
| 2026-05-04 18:14 | 51.13337 | -0.29826 | 1394 ft | 156 kts | 77° |
| 2026-05-04 18:14 | 51.13560 | -0.28193 | 1247 ft | 144 kts | 76° |
| 2026-05-04 18:15 | 51.13974 | -0.25097 | 797 ft | 140 kts | 77° |
| 2026-05-04 18:15 | 51.14390 | -0.22105 | 414 ft | 139 kts | 77° |
| 2026-05-04 18:15 | 51.14596 | -0.20619 | 248 ft | 136 kts | 76° |
| 2026-05-04 18:16 | 51.14781 | -0.19272 | 204 ft | 108 kts | 77° |
| 2026-05-04 18:16 | 51.14918 | -0.18299 | 207 ft | 62 kts | 79° |
| 2026-05-04 18:16 | 51.15000 | -0.17917 | 207 ft | 22 kts | 56° |
| 2026-05-04 18:17 | 51.15115 | -0.17760 | 204 ft | 8 kts | 4° |
| 2026-05-04 18:17 | 51.15144 | -0.17757 | 204 ft | 0 kts | 4° |
| 2026-05-04 18:17 | 51.15147 | -0.17757 | 212 ft | 2 kts | 355° |
| 2026-05-04 18:18 | 51.15176 | -0.17767 | 213 ft | 6 kts | 348° |
| 2026-05-04 18:18 | 51.15223 | -0.17777 | 204 ft | 8 kts | 5° |
| 2026-05-04 18:18 | 51.15265 | -0.17708 | 203 ft | 11 kts | 71° |
| 2026-05-04 18:18 | 51.15283 | -0.17572 | 203 ft | 13 kts | 78° |
| 2026-05-04 18:19 | 51.15360 | -0.17327 | 210 ft | 13 kts | 60° |
| 2026-05-04 18:19 | 51.15389 | -0.17190 | 210 ft | 14 kts | 69° |
| 2026-05-04 18:19 | 51.15422 | -0.17026 | 209 ft | 16 kts | 76° |
| 2026-05-04 18:20 | 51.15443 | -0.16895 | 203 ft | 4 kts | 46° |
| 2026-05-04 18:20 | 51.15473 | -0.16895 | 207 ft | 6 kts | 347° |
| 2026-05-04 18:20 | 51.15495 | -0.16903 | 210 ft | 0 kts | 348° |